»·PEaware :: N377AM KSDL-KPSP

N377AM :: KSDL-KPSP

FLIGHT INFORMATION

Flight Status: Arrived
Operator: Privately registered:
United States
More flights under this callsign
Pilot: Andrew M. (139)
Aircraft: SOCATA TBM-900
(TBM9)
More flights by this aircraft type
Origin: KSDL Scottsdale
United States
Destination: KPSP Palm Springs Intl
United States
More flights between these airports :: More routes between these airports
Route: SCOT7 BLH BLH SBONO1
File this flight plan on PilotEdge
Remarks:
Altitude:
(Current/Filed)
22,000ft
Speed:
(Current/Filed)
300kts
Departed: 13-Feb-19 06:30 PM
Arrived: 13-Feb-19 07:45 PM
Distance/Time
Traveled:
230nm/1:15
Distance/Time
To Go:
Arrived

Flight Plot

Page will automatically refresh every two minutes.

Flight plan parsing failed; only flown route is shown


Map Options




Map Legend


Flown Route
Filed Route
Departure Airport
Arrival Airport
Navaid (VOR, NDB)
Fix

Horizontal Profiles

Position Reports

Time Latitude Longitude Heading Altitude Ground
Speed
13-Feb-19 18:09 33.622578 -111.909203 104 1473ft 0kts
13-Feb-19 18:10 33.622578 -111.909203 104 1473ft 0kts
13-Feb-19 18:11 33.622578 -111.909203 104 1473ft 0kts
13-Feb-19 18:12 33.622578 -111.909203 104 1473ft 0kts
13-Feb-19 18:13 33.622578 -111.909203 104 1473ft 0kts
13-Feb-19 18:14 33.622578 -111.909203 104 1473ft 0kts
13-Feb-19 18:16 33.622578 -111.909203 104 1473ft 0kts
13-Feb-19 18:17 33.622578 -111.909203 104 1473ft 0kts
13-Feb-19 18:18 33.622578 -111.909203 104 1473ft 0kts
13-Feb-19 18:19 33.622578 -111.909203 104 1473ft 0kts
13-Feb-19 18:20 33.622578 -111.909203 104 1473ft 0kts
13-Feb-19 18:21 33.622578 -111.909203 104 1473ft 0kts
13-Feb-19 18:22 33.622578 -111.909203 104 1473ft 0kts
13-Feb-19 18:23 33.622491 -111.909257 302 1473ft 4kts
13-Feb-19 18:24 33.623400 -111.908798 44 1475ft 7kts
13-Feb-19 18:25 33.625280 -111.906627 44 1483ft 12kts
13-Feb-19 18:26 33.627770 -111.903771 43 1491ft 10kts
13-Feb-19 18:27 33.629558 -111.901705 45 1498ft 8kts
13-Feb-19 18:28 33.630662 -111.900738 314 1502ft 0kts
13-Feb-19 18:29 33.630662 -111.900738 314 1502ft 0kts
13-Feb-19 18:30 33.629484 -111.902948 223 1496ft 66kts
13-Feb-19 18:31 33.609269 -111.932873 273 2820ft 134kts
13-Feb-19 18:31 33.625173 -111.965167 295 4505ft 139kts
13-Feb-19 18:33 33.631342 -112.017346 266 7106ft 140kts
13-Feb-19 18:34 33.631404 -112.062491 265 9621ft 134kts
13-Feb-19 18:34 33.631308 -112.097622 266 11665ft 123kts
13-Feb-19 18:36 33.631202 -112.143899 267 14205ft 122kts
13-Feb-19 18:37 33.631021 -112.185019 268 16365ft 125kts
13-Feb-19 18:37 33.630932 -112.219812 268 18140ft 128kts
13-Feb-19 18:38 33.630781 -112.263051 269 20248ft 133kts
13-Feb-19 18:39 33.630686 -112.308713 269 22046ft 157kts
13-Feb-19 18:40 33.630327 -112.374866 268 22047ft 227kts
13-Feb-19 18:41 33.629840 -112.454363 269 22029ft 245kts
13-Feb-19 18:42 33.629421 -112.536804 269 22023ft 248kts
13-Feb-19 18:43 33.628940 -112.618638 269 22020ft 244kts
13-Feb-19 18:44 33.628356 -112.699384 269 22031ft 245kts
13-Feb-19 18:45 33.627726 -112.781134 269 22030ft 246kts
13-Feb-19 18:46 33.627047 -112.862682 269 22031ft 245kts
13-Feb-19 18:47 33.626316 -112.944289 269 22032ft 243kts
13-Feb-19 18:48 33.625567 -113.024610 268 22034ft 241kts
13-Feb-19 18:49 33.624728 -113.104476 268 22035ft 240kts
13-Feb-19 18:50 33.623810 -113.184227 269 22032ft 242kts
13-Feb-19 18:51 33.622925 -113.264794 268 22034ft 242kts
13-Feb-19 18:52 33.621932 -113.345332 268 22033ft 242kts
13-Feb-19 18:53 33.620899 -113.426052 268 22033ft 244kts
13-Feb-19 18:54 33.619788 -113.507272 268 22031ft 245kts
13-Feb-19 18:55 33.618637 -113.588637 268 22031ft 245kts
13-Feb-19 18:56 33.617437 -113.668730 267 22040ft 245kts
13-Feb-19 18:57 33.616171 -113.750563 267 22039ft 246kts
13-Feb-19 18:58 33.614854 -113.831818 268 22028ft 243kts
13-Feb-19 18:59 33.613537 -113.911447 268 22036ft 237kts
13-Feb-19 19:00 33.612176 -113.989240 267 22036ft 235kts
13-Feb-19 19:01 33.610777 -114.066587 267 22028ft 235kts
13-Feb-19 19:02 33.609327 -114.144015 267 22014ft 235kts
13-Feb-19 19:03 33.607823 -114.221444 267 22003ft 235kts
13-Feb-19 19:04 33.606280 -114.299067 267 22002ft 240kts
13-Feb-19 19:05 33.604667 -114.378303 267 21995ft 242kts
13-Feb-19 19:06 33.602965 -114.458550 267 21996ft 241kts
13-Feb-19 19:07 33.601588 -114.538188 274 21974ft 243kts
13-Feb-19 19:08 33.617735 -114.615336 281 21991ft 239kts
13-Feb-19 19:09 33.634399 -114.690753 281 22005ft 238kts
13-Feb-19 19:10 33.651138 -114.766901 281 21992ft 238kts
13-Feb-19 19:11 33.668129 -114.844269 281 22004ft 241kts
13-Feb-19 19:12 33.685118 -114.921819 282 22000ft 241kts
13-Feb-19 19:13 33.702042 -114.999252 281 22025ft 241kts
13-Feb-19 19:14 33.719107 -115.077798 281 22032ft 245kts
13-Feb-19 19:15 33.736236 -115.156674 281 22032ft 243kts
13-Feb-19 19:16 33.752935 -115.234194 281 22026ft 232kts
13-Feb-19 19:17 33.768708 -115.307193 280 21174ft 213kts
13-Feb-19 19:18 33.782666 -115.372340 279 20071ft 196kts
13-Feb-19 19:19 33.796302 -115.436071 279 19057ft 198kts
13-Feb-19 19:20 33.810135 -115.500689 278 18019ft 202kts
13-Feb-19 19:21 33.824262 -115.566893 278 16943ft 203kts
13-Feb-19 19:22 33.837867 -115.630965 277 15873ft 191kts
13-Feb-19 19:23 33.850309 -115.689903 277 14936ft 185kts
13-Feb-19 19:24 33.852566 -115.752620 264 13131ft 196kts
13-Feb-19 19:25 33.851000 -115.812417 263 11283ft 177kts
13-Feb-19 19:26 33.849592 -115.863485 264 10277ft 174kts
13-Feb-19 19:27 33.848210 -115.911426 264 9493ft 178kts
13-Feb-19 19:28 33.846962 -115.955622 264 8833ft 181kts
13-Feb-19 19:29 33.845500 -116.004207 264 8024ft 175kts
13-Feb-19 19:30 33.843814 -116.061907 265 7108ft 167kts
13-Feb-19 19:31 33.838329 -116.119122 251 6985ft 136kts
13-Feb-19 19:32 33.825860 -116.169018 251 6586ft 124kts
13-Feb-19 19:33 33.816258 -116.207251 250 5067ft 104kts
13-Feb-19 19:34 33.807804 -116.242883 251 5032ft 122kts
13-Feb-19 19:35 33.798316 -116.280721 251 5000ft 124kts
13-Feb-19 19:36 33.793496 -116.316301 257 4047ft 101kts
13-Feb-19 19:37 33.787585 -116.349357 254 2774ft 102kts
13-Feb-19 19:38 33.780452 -116.381292 260 1745ft 94kts
13-Feb-19 19:39 33.788369 -116.411020 287 1254ft 94kts
13-Feb-19 19:40 33.789885 -116.441385 271 1200ft 85kts
13-Feb-19 19:41 33.791674 -116.469494 286 1215ft 83kts
13-Feb-19 19:42 33.807618 -116.488178 323 811ft 82kts
13-Feb-19 19:43 33.824870 -116.503380 324 414ft 67kts
13-Feb-19 19:44 33.828758 -116.508501 248 424ft 12kts
13-Feb-19 19:45 33.828297 -116.509198 187 425ft 0kts

Navigation Log

Ident Type
Flight plan parsing failed, navigation log unavailable